createdAt,value
2019-03-01T00:01:24.709Z,99537.42
2019-03-01T00:03:56.604Z,99549.79
2019-03-01T00:06:39.833Z,99549.42
2019-03-01T00:09:46.337Z,99550.54
2019-03-01T00:12:39.092Z,99548.82
2019-03-01T00:15:28.608Z,99545.61
2019-03-01T00:18:27.641Z,99545.85
2019-03-01T00:21:17.910Z,99545.11
2019-03-01T00:23:52.949Z,99547.27
2019-03-01T00:26:39.677Z,99538.27
2019-03-01T00:29:17.119Z,99539.72
2019-03-01T00:31:54.626Z,99539.33
2019-03-01T00:34:38.814Z,99542.58
2019-03-01T00:37:31.586Z,99542.37
2019-03-01T00:40:15.251Z,99536.70
2019-03-01T00:43:01.306Z,99529.05
2019-03-01T00:45:27.458Z,99534.95
2019-03-01T00:47:53.642Z,99532.25
2019-03-01T00:50:19.809Z,99532.08
2019-03-01T00:52:45.950Z,99530.60
2019-03-01T00:55:12.107Z,99524.47
2019-03-01T00:57:38.269Z,99525.59
2019-03-01T01:00:23.008Z,99525.70
2019-03-01T01:02:49.188Z,99519.02
2019-03-01T01:05:15.504Z,99512.55
2019-03-01T01:07:41.645Z,99509.72
2019-03-01T01:10:07.860Z,99510.88
2019-03-01T01:12:34.301Z,99509.55
2019-03-01T01:15:07.391Z,99508.56
2019-03-01T01:17:40.326Z,99510.67
2019-03-01T01:20:08.285Z,99509.82
2019-03-01T01:22:34.429Z,99506.36
2019-03-01T01:25:00.606Z,99503.38
2019-03-01T01:27:26.768Z,99501.41
2019-03-01T01:29:52.946Z,99498.77
2019-03-01T01:32:19.160Z,99502.23
2019-03-01T01:34:45.295Z,99497.75
2019-03-01T01:37:11.502Z,99505.67
2019-03-01T01:39:37.640Z,99500.75
2019-03-01T01:42:04.367Z,99499.43
2019-03-01T01:44:30.482Z,99495.95
2019-03-01T01:46:56.659Z,99492.02
2019-03-01T01:49:42.872Z,99493.70
2019-03-01T01:52:09.331Z,99490.24
2019-03-01T01:54:35.472Z,99485.62
2019-03-01T01:57:02.022Z,99484.44
2019-03-01T01:59:28.207Z,99485.26
2019-03-01T02:01:54.431Z,99479.48
2019-03-01T02:04:40.503Z,99476.98
2019-03-01T02:07:06.709Z,99476.81
2019-03-01T02:09:33.562Z,99470.70
2019-03-01T02:11:59.947Z,99464.96
2019-03-01T02:14:26.082Z,99463.01
2019-03-01T02:16:52.282Z,99456.30
2019-03-01T02:19:18.427Z,99454.01
2019-03-01T02:21:44.593Z,99452.54
2019-03-01T02:24:10.794Z,99446.13
2019-03-01T02:26:36.926Z,99450.66
2019-03-01T02:29:03.296Z,99448.34
2019-03-01T02:31:29.571Z,99446.09
2019-03-01T02:33:56.003Z,99444.93
2019-03-01T02:36:22.150Z,99446.60
2019-03-01T02:38:48.447Z,99444.17
2019-03-01T02:41:14.588Z,99437.92
2019-03-01T02:43:40.787Z,99438.28
2019-03-01T02:46:06.936Z,99436.81
2019-03-01T02:48:33.148Z,99430.56
2019-03-01T02:50:59.290Z,99430.06
2019-03-01T02:53:25.452Z,99429.73
2019-03-01T02:55:51.615Z,99428.58
2019-03-01T02:58:17.792Z,99430.20
2019-03-01T03:00:44.336Z,99422.45
2019-03-01T03:03:10.495Z,99424.57
2019-03-01T03:05:38.620Z,99424.55
2019-03-01T03:08:06.680Z,99423.37
2019-03-01T03:10:32.837Z,99420.59
2019-03-01T03:13:02.394Z,99423.06
2019-03-01T03:15:42.587Z,99417.78
2019-03-01T03:18:08.764Z,99418.91
2019-03-01T03:20:35.017Z,99422.37
2019-03-01T03:23:01.201Z,99425.64
2019-03-01T03:25:27.352Z,99425.94
2019-03-01T03:27:53.500Z,99425.12
2019-03-01T03:30:19.784Z,99424.30
2019-03-01T03:32:46.309Z,99420.68
2019-03-01T03:35:12.484Z,99418.56
2019-03-01T03:37:38.615Z,99419.91
2019-03-01T03:40:08.571Z,99417.92
2019-03-01T03:42:34.709Z,99418.41
2019-03-01T03:45:00.918Z,99420.23
2019-03-01T03:47:27.059Z,99420.23
2019-03-01T03:49:53.214Z,99417.08
2019-03-01T03:52:19.397Z,99413.58
2019-03-01T03:54:45.543Z,99407.97
2019-03-01T03:57:11.679Z,99405.30
2019-03-01T03:59:37.854Z,99405.97
2019-03-01T04:02:04.123Z,99405.63
2019-03-01T04:04:30.504Z,99411.60
2019-03-01T04:06:56.652Z,99405.00
2019-03-01T04:09:22.877Z,99401.84
2019-03-01T04:11:49.138Z,99403.31
2019-03-01T04:14:15.281Z,99400.69
2019-03-01T04:16:41.429Z,99396.72
2019-03-01T04:19:07.587Z,99397.39
2019-03-01T04:21:33.740Z,99398.88
2019-03-01T04:23:59.985Z,99396.93
2019-03-01T04:26:26.125Z,99389.16
2019-03-01T04:28:52.614Z,99388.20
2019-03-01T04:31:18.781Z,99385.06
2019-03-01T04:33:44.963Z,99378.12
2019-03-01T04:36:11.386Z,99371.70
2019-03-01T04:38:37.517Z,99370.55
2019-03-01T04:41:03.707Z,99367.77
2019-03-01T04:43:29.867Z,99368.91
2019-03-01T04:45:56.052Z,99368.58
2019-03-01T04:48:22.184Z,99366.63
2019-03-01T04:50:48.374Z,99370.42
2019-03-01T04:53:14.506Z,99370.26
2019-03-01T04:55:40.693Z,99368.26
2019-03-01T04:58:06.956Z,99368.41
2019-03-01T05:00:33.066Z,99369.88
2019-03-01T05:02:59.226Z,99366.20
2019-03-01T05:05:25.714Z,99364.64
2019-03-01T05:08:06.021Z,99363.94
2019-03-01T05:10:32.190Z,99365.88
2019-03-01T05:12:58.322Z,99368.97
2019-03-01T05:15:27.371Z,99369.77
2019-03-01T05:17:53.523Z,99367.13
2019-03-01T05:20:19.686Z,99363.84
2019-03-01T05:22:45.843Z,99365.30
2019-03-01T05:25:12.488Z,99356.69
2019-03-01T05:27:38.655Z,99361.97
2019-03-01T05:30:09.598Z,99358.67
2019-03-01T05:32:36.076Z,99357.48
2019-03-01T05:35:03.165Z,99356.17
2019-03-01T05:37:29.320Z,99355.02
2019-03-01T05:39:55.482Z,99352.19
2019-03-01T05:42:21.928Z,99354.50
2019-03-01T05:44:48.071Z,99349.03
2019-03-01T05:47:14.252Z,99346.55
2019-03-01T05:49:40.466Z,99354.50
2019-03-01T05:52:06.631Z,99350.53
2019-03-01T05:54:33.111Z,99346.08
2019-03-01T05:56:59.269Z,99346.41
2019-03-01T05:59:25.416Z,99352.66
2019-03-01T06:02:11.687Z,99350.88
2019-03-01T06:04:46.571Z,99352.36
2019-03-01T06:07:42.643Z,99356.29
2019-03-01T06:10:29.423Z,99350.50
2019-03-01T06:13:27.029Z,99348.49
2019-03-01T06:16:25.548Z,99350.26
2019-03-01T06:19:22.759Z,99350.20
2019-03-01T06:22:33.523Z,99347.88
2019-03-01T06:25:20.326Z,99351.13
2019-03-01T06:28:12.492Z,99350.00
2019-03-01T06:31:04.298Z,99353.46
2019-03-01T06:33:50.625Z,99354.61
2019-03-01T06:36:51.078Z,99359.78
2019-03-01T06:39:39.180Z,99360.95
2019-03-01T06:42:19.289Z,99360.34
2019-03-01T06:44:54.708Z,99363.50
2019-03-01T06:47:41.413Z,99356.45
2019-03-01T06:50:22.249Z,99354.17
2019-03-01T06:52:48.452Z,99356.36
2019-03-01T06:55:34.439Z,99359.20
2019-03-01T06:58:01.314Z,99360.09
2019-03-01T07:00:29.352Z,99356.50
2019-03-01T07:02:57.419Z,99351.58
2019-03-01T07:05:23.566Z,99347.50
2019-03-01T07:07:49.785Z,99343.06
2019-03-01T07:10:15.922Z,99346.03
2019-03-01T07:12:42.113Z,99348.52
2019-03-01T07:15:08.865Z,99344.72
2019-03-01T07:17:35.190Z,99340.29
2019-03-01T07:20:01.364Z,99337.67
2019-03-01T07:22:27.500Z,99340.64
2019-03-01T07:24:53.695Z,99338.33
2019-03-01T07:27:19.840Z,99331.39
2019-03-01T07:29:46.022Z,99340.98
2019-03-01T07:32:12.160Z,99333.56
2019-03-01T07:34:38.663Z,99329.27
2019-03-01T07:37:04.809Z,99328.25
2019-03-01T07:39:31.228Z,99333.39
2019-03-01T07:41:57.625Z,99336.41
2019-03-01T07:44:23.786Z,99346.33
2019-03-01T07:46:53.029Z,99344.55
2019-03-01T07:49:18.038Z,99345.06
2019-03-01T07:51:44.317Z,99349.05
2019-03-01T07:54:13.360Z,99348.40
2019-03-01T07:56:39.856Z,99349.91
2019-03-01T07:59:13.265Z,99351.25
2019-03-01T08:01:39.415Z,99357.36
2019-03-01T08:04:05.596Z,99351.25
2019-03-01T08:06:31.740Z,99354.24
2019-03-01T08:08:57.927Z,99352.42
2019-03-01T08:11:24.108Z,99347.66
2019-03-01T08:13:53.144Z,99346.48
2019-03-01T08:16:20.085Z,99346.67
2019-03-01T08:18:46.646Z,99348.17
2019-03-01T08:21:14.778Z,99351.19
2019-03-01T08:23:40.941Z,99352.37
2019-03-01T08:26:07.031Z,99357.19
2019-03-01T08:28:33.168Z,99350.42
2019-03-01T08:30:59.362Z,99349.45
2019-03-01T08:33:25.789Z,99340.44
2019-03-01T08:35:51.955Z,99343.26
2019-03-01T08:38:18.088Z,99349.09
2019-03-01T08:40:46.655Z,99355.06
2019-03-01T08:43:13.234Z,99356.56
2019-03-01T08:45:39.484Z,99352.58
2019-03-01T08:48:05.616Z,99348.94
2019-03-01T08:50:31.796Z,99349.12
2019-03-01T08:52:58.519Z,99345.98
2019-03-01T08:55:29.299Z,99348.81
2019-03-01T08:57:59.669Z,99344.50
2019-03-01T09:00:28.180Z,99343.86
2019-03-01T09:02:59.110Z,99342.41
2019-03-01T09:05:25.251Z,99342.59
2019-03-01T09:07:51.419Z,99345.09
2019-03-01T09:10:17.590Z,99340.95
2019-03-01T09:12:43.759Z,99345.92
2019-03-01T09:15:13.055Z,99345.13
2019-03-01T09:17:39.273Z,99344.30
2019-03-01T09:20:10.486Z,99347.29
2019-03-01T09:22:36.622Z,99345.30
2019-03-01T09:25:07.717Z,99343.48
2019-03-01T09:27:34.071Z,99348.12
2019-03-01T09:30:03.571Z,99346.98
2019-03-01T09:32:30.431Z,99339.06
2019-03-01T09:34:58.490Z,99335.27
2019-03-01T09:37:24.713Z,99339.75
2019-03-01T09:39:53.685Z,99340.77
2019-03-01T09:42:19.202Z,99334.66
2019-03-01T09:44:45.372Z,99329.75
2019-03-01T09:47:11.515Z,99335.40
2019-03-01T09:49:37.696Z,99336.23
2019-03-01T09:52:03.824Z,99336.25
2019-03-01T09:54:29.956Z,99328.30
2019-03-01T09:56:56.135Z,99331.78
2019-03-01T09:59:22.269Z,99334.10
2019-03-01T10:01:48.754Z,99334.95
2019-03-01T10:04:14.915Z,99334.95
2019-03-01T10:06:41.103Z,99325.84
2019-03-01T10:09:09.352Z,99332.45
2019-03-01T10:11:35.811Z,99328.17
2019-03-01T10:14:01.967Z,99332.47
2019-03-01T10:16:28.113Z,99329.48
2019-03-01T10:18:54.263Z,99322.55
2019-03-01T10:21:20.443Z,99330.97
2019-03-01T10:23:46.598Z,99333.78
2019-03-01T10:26:12.770Z,99324.84
2019-03-01T10:28:38.928Z,99333.28
2019-03-01T10:31:05.112Z,99334.45
2019-03-01T10:33:31.243Z,99335.92
2019-03-01T10:35:57.409Z,99338.91
2019-03-01T10:38:24.139Z,99342.05
2019-03-01T10:40:50.331Z,99339.08
2019-03-01T10:43:16.676Z,99343.06
2019-03-01T10:45:42.830Z,99344.72
2019-03-01T10:48:08.974Z,99342.21
2019-03-01T10:50:35.150Z,99347.19
2019-03-01T10:53:01.298Z,99344.23
2019-03-01T10:55:27.463Z,99334.09
2019-03-01T10:57:53.594Z,99332.47
2019-03-01T11:00:28.576Z,99328.99
2019-03-01T11:02:56.116Z,99336.43
2019-03-01T11:05:23.322Z,99335.77
2019-03-01T11:07:51.979Z,99334.45
2019-03-01T11:10:39.135Z,99329.16
2019-03-01T11:13:08.291Z,99328.15
2019-03-01T11:15:34.656Z,99328.33
2019-03-01T11:18:00.791Z,99331.16
2019-03-01T11:20:26.966Z,99335.44
2019-03-01T11:22:53.159Z,99325.67
2019-03-01T11:25:24.296Z,99333.13
2019-03-01T11:27:50.806Z,99325.66
2019-03-01T11:30:29.682Z,99327.48
2019-03-01T11:32:55.836Z,99322.48
2019-03-01T11:35:22.118Z,99323.31
2019-03-01T11:37:48.286Z,99327.78
2019-03-01T11:40:21.204Z,99323.82
2019-03-01T11:42:47.483Z,99327.94
2019-03-01T11:45:13.952Z,99327.27
2019-03-01T11:47:40.467Z,99325.41
2019-03-01T11:50:14.090Z,99320.56
2019-03-01T11:52:40.611Z,99326.67
2019-03-01T11:55:07.257Z,99320.86
2019-03-01T11:57:33.426Z,99320.53
2019-03-01T11:59:59.599Z,99315.87
2019-03-01T12:02:25.759Z,99317.37
2019-03-01T12:04:51.912Z,99318.55
2019-03-01T12:07:18.093Z,99316.03
2019-03-01T12:09:44.563Z,99317.36
2019-03-01T12:12:10.869Z,99322.34
2019-03-01T12:14:37.019Z,99316.20
2019-03-01T12:17:03.473Z,99320.99
2019-03-01T12:19:29.632Z,99311.00
2019-03-01T12:21:55.803Z,99311.46
2019-03-01T12:24:21.952Z,99310.28
2019-03-01T12:26:48.692Z,99308.62
2019-03-01T12:29:14.802Z,99312.63
2019-03-01T12:31:40.957Z,99309.81
2019-03-01T12:34:07.176Z,99306.68
2019-03-01T12:36:33.332Z,99309.70
2019-03-01T12:38:59.521Z,99311.67
2019-03-01T12:41:25.646Z,99310.86
2019-03-01T12:43:51.820Z,99314.54
2019-03-01T12:46:17.954Z,99308.76
2019-03-01T12:48:44.124Z,99313.94
2019-03-01T12:51:10.573Z,99306.81
2019-03-01T12:53:36.734Z,99309.63
2019-03-01T12:56:02.881Z,99307.48
2019-03-01T12:58:29.080Z,99308.63
2019-03-01T13:00:55.475Z,99303.64
2019-03-01T13:03:21.663Z,99304.45
2019-03-01T13:05:49.909Z,99309.78
2019-03-01T13:08:16.696Z,99309.91
2019-03-01T13:10:43.118Z,99308.91
2019-03-01T13:13:09.264Z,99307.61
2019-03-01T13:15:35.400Z,99304.79
2019-03-01T13:18:03.340Z,99308.09
2019-03-01T13:20:29.991Z,99313.44
2019-03-01T13:22:56.283Z,99323.73
2019-03-01T13:25:22.394Z,99338.70
2019-03-01T13:27:51.976Z,99355.81
2019-03-01T13:30:27.287Z,99344.38
2019-03-01T13:32:55.011Z,99342.22
2019-03-01T13:35:22.247Z,99339.41
2019-03-01T13:37:51.980Z,99342.36
2019-03-01T13:40:20.834Z,99343.25
2019-03-01T13:42:50.727Z,99341.88
2019-03-01T13:45:20.828Z,99352.95
2019-03-01T13:47:46.988Z,99352.22
2019-03-01T13:50:16.148Z,99351.36
2019-03-01T13:52:42.314Z,99353.45
2019-03-01T13:55:10.558Z,99353.27
2019-03-01T13:57:36.718Z,99358.52
2019-03-01T14:00:08.471Z,99354.36
2019-03-01T14:02:34.645Z,99358.85
2019-03-01T14:05:00.792Z,99362.95
2019-03-01T14:07:26.958Z,99364.15
2019-03-01T14:09:53.096Z,99366.45
2019-03-01T14:12:19.269Z,99376.55
2019-03-01T14:14:45.411Z,99371.79
2019-03-01T14:17:11.583Z,99374.63
2019-03-01T14:19:39.027Z,99377.95
2019-03-01T14:22:10.598Z,99376.98
2019-03-01T14:24:34.142Z,99382.44
2019-03-01T14:27:00.288Z,99382.61
2019-03-01T14:29:26.456Z,99380.12
2019-03-01T14:31:52.600Z,99381.59
2019-03-01T14:34:18.811Z,99384.75
2019-03-01T14:36:44.953Z,99388.53
2019-03-01T14:39:36.212Z,99394.32
2019-03-01T14:42:02.674Z,99403.75
2019-03-01T14:44:30.623Z,99406.71
2019-03-01T14:46:57.078Z,99412.48
2019-03-01T14:49:23.289Z,99417.61
2019-03-01T14:51:49.496Z,99414.11
2019-03-01T14:54:15.656Z,99422.39
2019-03-01T14:56:44.016Z,99419.10
2019-03-01T14:59:18.794Z,99422.72
2019-03-01T15:02:03.178Z,99422.86
2019-03-01T15:04:30.312Z,99423.02
2019-03-01T15:06:56.432Z,99420.85
2019-03-01T15:09:22.598Z,99417.70
2019-03-01T15:11:49.007Z,99414.53
2019-03-01T15:14:15.127Z,99418.84
2019-03-01T15:16:43.325Z,99418.97
2019-03-01T15:19:09.742Z,99421.61
2019-03-01T15:21:37.527Z,99426.36
2019-03-01T15:24:04.456Z,99431.77
2019-03-01T15:26:30.607Z,99432.74
2019-03-01T15:28:58.739Z,99435.20
2019-03-01T15:31:24.855Z,99440.64
2019-03-01T15:33:51.911Z,99443.29
2019-03-01T15:36:19.129Z,99443.42
2019-03-01T15:38:45.389Z,99443.28
2019-03-01T15:41:11.554Z,99445.94
2019-03-01T15:43:38.132Z,99448.41
2019-03-01T15:46:04.389Z,99454.50
2019-03-01T15:48:30.536Z,99464.91
2019-03-01T15:50:59.130Z,99468.72
2019-03-01T15:53:25.957Z,99471.16
2019-03-01T15:55:52.265Z,99477.80
2019-03-01T15:58:18.528Z,99480.43
2019-03-01T16:00:44.675Z,99483.23
2019-03-01T16:03:10.847Z,99489.98
2019-03-01T16:05:38.178Z,99490.58
2019-03-01T16:08:05.503Z,99491.19
2019-03-01T16:10:32.941Z,99492.52
2019-03-01T16:13:00.735Z,99495.63
2019-03-01T16:15:26.903Z,99494.28
2019-03-01T16:17:53.045Z,99497.23
2019-03-01T16:20:19.344Z,99500.00
2019-03-01T16:22:45.577Z,99505.43
2019-03-01T16:25:20.443Z,99504.02
2019-03-01T16:27:45.326Z,99510.25
2019-03-01T16:30:17.600Z,99515.02
2019-03-01T16:32:49.646Z,99522.09
2019-03-01T16:35:17.827Z,99528.01
2019-03-01T16:37:57.764Z,99527.33
2019-03-01T16:40:22.689Z,99530.44
2019-03-01T16:42:53.011Z,99532.22
2019-03-01T16:45:20.662Z,99536.68
2019-03-01T16:47:45.609Z,99542.10
2019-03-01T16:50:19.516Z,99548.34
2019-03-01T16:52:45.778Z,99545.65
2019-03-01T16:55:15.375Z,99563.72
2019-03-01T16:57:41.525Z,99563.83
2019-03-01T17:00:18.319Z,99573.89
2019-03-01T17:02:45.181Z,99581.62
2019-03-01T17:05:11.652Z,99581.45
2019-03-01T17:07:37.789Z,99597.47
2019-03-01T17:10:09.263Z,99597.07
2019-03-01T17:12:37.601Z,99600.84
2019-03-01T17:15:10.820Z,99598.82
2019-03-01T17:17:37.842Z,99608.16
2019-03-01T17:20:07.796Z,99610.60
2019-03-01T17:22:33.951Z,99616.97
2019-03-01T17:25:00.272Z,99618.91
2019-03-01T17:27:26.396Z,99619.17
2019-03-01T17:29:52.632Z,99620.95
2019-03-01T17:32:18.793Z,99627.22
2019-03-01T17:34:44.977Z,99621.74
2019-03-01T17:37:11.127Z,99640.09
2019-03-01T17:39:37.535Z,99660.64
2019-03-01T17:42:03.698Z,99660.56
2019-03-01T17:44:29.847Z,99666.48
2019-03-01T17:46:56.041Z,99666.48
2019-03-01T17:49:22.268Z,99667.44
2019-03-01T17:51:48.530Z,99675.64
2019-03-01T17:54:14.682Z,99679.88
2019-03-01T17:56:41.076Z,99677.39
2019-03-01T17:59:08.297Z,99682.70
2019-03-01T18:01:38.969Z,99691.30
2019-03-01T18:04:03.647Z,99694.88
2019-03-01T18:06:29.811Z,99698.08
2019-03-01T18:08:55.979Z,99699.63
2019-03-01T18:11:22.265Z,99703.36
2019-03-01T18:13:48.402Z,99708.75
2019-03-01T18:16:14.559Z,99713.94
2019-03-01T18:18:42.507Z,99717.99
2019-03-01T18:21:10.113Z,99723.12
2019-03-01T18:23:38.899Z,99732.52
2019-03-01T18:26:06.365Z,99738.84
2019-03-01T18:28:32.582Z,99747.47
2019-03-01T18:30:58.740Z,99750.70
2019-03-01T18:33:24.898Z,99752.30
2019-03-01T18:35:52.528Z,99753.57
2019-03-01T18:38:19.146Z,99761.30
2019-03-01T18:40:45.312Z,99761.51
2019-03-01T18:43:13.777Z,99768.27
2019-03-01T18:45:42.084Z,99765.14
2019-03-01T18:48:08.890Z,99773.53
2019-03-01T18:50:37.962Z,99773.27
2019-03-01T18:53:04.470Z,99769.20
2019-03-01T18:55:30.707Z,99771.61
2019-03-01T18:57:57.029Z,99777.27
2019-03-01T19:00:32.529Z,99783.56
2019-03-01T19:03:00.999Z,99783.52
2019-03-01T19:05:28.350Z,99792.80
2019-03-01T19:07:54.521Z,99791.55
2019-03-01T19:10:27.256Z,99794.45
2019-03-01T19:12:51.946Z,99795.12
2019-03-01T19:15:18.353Z,99799.84
2019-03-01T19:17:45.252Z,99807.57
2019-03-01T19:20:18.231Z,99812.66
2019-03-01T19:22:44.424Z,99812.45
2019-03-01T19:25:13.645Z,99816.61
2019-03-01T19:27:39.842Z,99817.43
2019-03-01T19:30:13.598Z,99815.41
2019-03-01T19:32:39.094Z,99815.73
2019-03-01T19:35:07.306Z,99816.55
2019-03-01T19:37:33.479Z,99827.85
2019-03-01T19:39:59.623Z,99823.58
2019-03-01T19:42:25.810Z,99823.52
2019-03-01T19:44:51.950Z,99825.44
2019-03-01T19:47:18.153Z,99834.09
2019-03-01T19:49:45.229Z,99833.22
2019-03-01T19:52:12.997Z,99841.04
2019-03-01T19:54:39.489Z,99834.85
2019-03-01T19:57:06.060Z,99836.80
2019-03-01T19:59:32.204Z,99835.77
2019-03-01T20:01:58.369Z,99833.57
2019-03-01T20:04:24.543Z,99845.19
2019-03-01T20:06:50.998Z,99849.89
2019-03-01T20:09:17.205Z,99854.27
2019-03-01T20:11:43.349Z,99861.78
2019-03-01T20:14:09.516Z,99868.45
2019-03-01T20:16:36.017Z,99867.67
2019-03-01T20:19:02.453Z,99870.95
2019-03-01T20:21:28.615Z,99874.03
2019-03-01T20:23:54.771Z,99874.30
2019-03-01T20:26:23.534Z,99875.00
2019-03-01T20:28:50.481Z,99876.42
2019-03-01T20:31:17.745Z,99883.81
2019-03-01T20:33:43.888Z,99880.64
2019-03-01T20:36:10.034Z,99879.59
2019-03-01T20:38:37.097Z,99882.48
2019-03-01T20:41:04.827Z,99888.98
2019-03-01T20:43:31.231Z,99898.41
2019-03-01T20:45:57.420Z,99897.50
2019-03-01T20:48:25.631Z,99902.23
2019-03-01T20:50:51.916Z,99907.08
2019-03-01T20:53:18.140Z,99912.33
2019-03-01T20:55:44.554Z,99916.38
2019-03-01T20:58:10.760Z,99918.30
2019-03-01T21:00:36.896Z,99923.77
2019-03-01T21:03:03.064Z,99924.91
2019-03-01T21:05:30.586Z,99926.55
2019-03-01T21:07:57.018Z,99927.32
2019-03-01T21:10:25.281Z,99923.88
2019-03-01T21:12:51.518Z,99924.47
2019-03-01T21:15:21.419Z,99933.67
2019-03-01T21:17:48.538Z,99937.12
2019-03-01T21:20:19.346Z,99937.63
2019-03-01T21:22:44.197Z,99940.96
2019-03-01T21:25:20.036Z,99938.98
2019-03-01T21:27:47.506Z,99942.20
2019-03-01T21:30:24.037Z,99944.02
2019-03-01T21:32:50.766Z,99948.21
2019-03-01T21:35:17.621Z,99953.15
2019-03-01T21:37:43.796Z,99958.27
2019-03-01T21:40:12.579Z,99958.41
2019-03-01T21:42:38.731Z,99963.67
2019-03-01T21:45:17.881Z,99964.77
2019-03-01T21:47:44.711Z,99965.50
2019-03-01T21:50:12.173Z,99962.23
2019-03-01T21:52:39.365Z,99967.49
2019-03-01T21:55:10.023Z,99968.30
2019-03-01T21:57:36.215Z,99967.67
2019-03-01T22:00:09.733Z,99972.84
2019-03-01T22:02:35.919Z,99971.92
2019-03-01T22:05:06.084Z,99970.50
2019-03-01T22:07:33.627Z,99976.81
2019-03-01T22:10:00.767Z,99974.46
2019-03-01T22:12:26.983Z,99972.31
2019-03-01T22:14:53.153Z,99977.68
2019-03-01T22:17:19.319Z,99981.88
2019-03-01T22:19:45.489Z,99982.36
2019-03-01T22:22:11.599Z,99988.92
2019-03-01T22:24:37.780Z,99996.20
2019-03-01T22:27:03.927Z,99991.17
2019-03-01T22:29:30.111Z,99979.23
2019-03-01T22:31:56.232Z,99974.05
2019-03-01T22:34:22.733Z,99981.87
2019-03-01T22:36:49.502Z,99990.66
2019-03-01T22:39:23.146Z,99995.99
2019-03-01T22:41:49.319Z,100001.18
2019-03-01T22:44:15.998Z,99999.80
2019-03-01T22:46:42.148Z,99997.10
2019-03-01T22:49:28.588Z,99997.34
2019-03-01T22:51:56.397Z,100001.88
2019-03-01T22:54:22.549Z,99999.98
2019-03-01T22:56:49.542Z,99999.50
2019-03-01T22:59:15.946Z,99997.98
2019-03-01T23:01:42.395Z,99996.63
2019-03-01T23:04:09.299Z,100000.91
2019-03-01T23:06:35.422Z,99999.91
2019-03-01T23:09:03.325Z,100006.65
2019-03-01T23:11:32.494Z,100004.45
2019-03-01T23:13:57.803Z,100017.91
2019-03-01T23:16:23.944Z,100015.78
2019-03-01T23:18:56.693Z,100014.55
2019-03-01T23:21:18.153Z,100012.04
2019-03-01T23:23:44.318Z,100017.02
2019-03-01T23:26:10.552Z,100022.92
2019-03-01T23:28:36.724Z,100015.16
2019-03-01T23:31:03.626Z,100015.45
2019-03-01T23:33:31.579Z,100018.86
2019-03-01T23:35:58.751Z,100020.99
2019-03-01T23:38:24.998Z,100022.31
2019-03-01T23:40:51.192Z,100024.10
2019-03-01T23:43:17.329Z,100024.73
2019-03-01T23:45:43.490Z,100025.44
2019-03-01T23:48:10.628Z,100023.76
2019-03-01T23:50:37.766Z,100031.67
2019-03-01T23:53:03.914Z,100026.48
2019-03-01T23:55:30.084Z,100022.05
2019-03-01T23:58:05.548Z,100027.72
